sensor_id;sensor_type;location;lat;lon;timestamp;P1;durP1;ratioP1;P2;durP2;ratioP2
44995;SDS011;30729;49.486;10.792;2023-04-03T00:00:23;4.47;;;1.77;;
44995;SDS011;30729;49.486;10.792;2023-04-03T00:02:48;5.05;;;1.85;;
44995;SDS011;30729;49.486;10.792;2023-04-03T00:05:13;3.97;;;1.73;;
44995;SDS011;30729;49.486;10.792;2023-04-03T00:07:39;4.07;;;1.73;;
44995;SDS011;30729;49.486;10.792;2023-04-03T00:10:04;5.38;;;1.90;;
44995;SDS011;30729;49.486;10.792;2023-04-03T00:12:30;4.43;;;1.80;;
44995;SDS011;30729;49.486;10.792;2023-04-03T00:14:55;3.72;;;1.45;;
44995;SDS011;30729;49.486;10.792;2023-04-03T00:17:20;7.72;;;1.80;;
44995;SDS011;30729;49.486;10.792;2023-04-03T00:19:45;6.82;;;1.75;;
44995;SDS011;30729;49.486;10.792;2023-04-03T00:22:11;4.30;;;1.65;;
44995;SDS011;30729;49.486;10.792;2023-04-03T00:24:36;6.82;;;1.83;;
44995;SDS011;30729;49.486;10.792;2023-04-03T00:27:01;4.57;;;1.85;;
44995;SDS011;30729;49.486;10.792;2023-04-03T00:29:26;2.85;;;1.40;;
44995;SDS011;30729;49.486;10.792;2023-04-03T00:31:51;3.53;;;1.40;;
44995;SDS011;30729;49.486;10.792;2023-04-03T00:34:16;3.75;;;1.58;;
44995;SDS011;30729;49.486;10.792;2023-04-03T00:36:41;4.28;;;1.52;;
44995;SDS011;30729;49.486;10.792;2023-04-03T00:39:07;3.60;;;1.73;;
44995;SDS011;30729;49.486;10.792;2023-04-03T00:41:32;2.88;;;1.60;;
44995;SDS011;30729;49.486;10.792;2023-04-03T00:43:57;3.25;;;1.73;;
44995;SDS011;30729;49.486;10.792;2023-04-03T00:46:22;4.72;;;2.05;;
44995;SDS011;30729;49.486;10.792;2023-04-03T00:48:48;2.92;;;1.50;;
44995;SDS011;30729;49.486;10.792;2023-04-03T00:51:14;3.38;;;1.80;;
44995;SDS011;30729;49.486;10.792;2023-04-03T00:53:48;3.65;;;1.65;;
44995;SDS011;30729;49.486;10.792;2023-04-03T00:56:15;4.63;;;1.60;;
44995;SDS011;30729;49.486;10.792;2023-04-03T00:59:16;3.20;;;1.60;;
44995;SDS011;30729;49.486;10.792;2023-04-03T01:01:33;3.10;;;1.63;;
44995;SDS011;30729;49.486;10.792;2023-04-03T01:04:00;5.15;;;1.77;;
44995;SDS011;30729;49.486;10.792;2023-04-03T01:06:26;4.43;;;2.13;;
44995;SDS011;30729;49.486;10.792;2023-04-03T01:08:52;3.08;;;1.77;;
44995;SDS011;30729;49.486;10.792;2023-04-03T01:11:18;3.13;;;1.65;;
44995;SDS011;30729;49.486;10.792;2023-04-03T01:13:43;3.72;;;1.75;;
44995;SDS011;30729;49.486;10.792;2023-04-03T01:16:08;4.68;;;1.92;;
44995;SDS011;30729;49.486;10.792;2023-04-03T01:18:34;4.28;;;1.52;;
44995;SDS011;30729;49.486;10.792;2023-04-03T01:21:10;4.55;;;1.98;;
44995;SDS011;30729;49.486;10.792;2023-04-03T01:26:16;3.63;;;1.70;;
44995;SDS011;30729;49.486;10.792;2023-04-03T01:28:41;5.80;;;2.40;;
44995;SDS011;30729;49.486;10.792;2023-04-03T01:33:38;4.00;;;2.10;;
44995;SDS011;30729;49.486;10.792;2023-04-03T01:36:03;3.25;;;1.58;;
44995;SDS011;30729;49.486;10.792;2023-04-03T01:38:29;4.15;;;1.80;;
44995;SDS011;30729;49.486;10.792;2023-04-03T01:40:54;4.13;;;1.70;;
44995;SDS011;30729;49.486;10.792;2023-04-03T01:43:19;5.15;;;1.80;;
44995;SDS011;30729;49.486;10.792;2023-04-03T01:45:44;5.88;;;1.80;;
44995;SDS011;30729;49.486;10.792;2023-04-03T01:48:11;5.10;;;1.58;;
44995;SDS011;30729;49.486;10.792;2023-04-03T01:50:36;4.05;;;1.90;;
44995;SDS011;30729;49.486;10.792;2023-04-03T01:53:02;4.72;;;1.90;;
44995;SDS011;30729;49.486;10.792;2023-04-03T01:55:27;4.43;;;1.77;;
44995;SDS011;30729;49.486;10.792;2023-04-03T01:57:52;3.38;;;1.65;;
44995;SDS011;30729;49.486;10.792;2023-04-03T02:00:17;2.40;;;1.45;;
44995;SDS011;30729;49.486;10.792;2023-04-03T02:02:42;2.78;;;1.50;;
44995;SDS011;30729;49.486;10.792;2023-04-03T02:05:07;3.95;;;1.70;;
44995;SDS011;30729;49.486;10.792;2023-04-03T02:07:33;3.78;;;1.50;;
44995;SDS011;30729;49.486;10.792;2023-04-03T02:09:58;3.65;;;1.75;;
44995;SDS011;30729;49.486;10.792;2023-04-03T02:12:23;3.30;;;1.50;;
44995;SDS011;30729;49.486;10.792;2023-04-03T02:14:48;3.22;;;1.80;;
44995;SDS011;30729;49.486;10.792;2023-04-03T02:17:13;3.92;;;1.60;;
44995;SDS011;30729;49.486;10.792;2023-04-03T02:19:39;4.75;;;2.00;;
44995;SDS011;30729;49.486;10.792;2023-04-03T02:22:05;3.50;;;1.50;;
44995;SDS011;30729;49.486;10.792;2023-04-03T02:24:30;5.38;;;1.85;;
44995;SDS011;30729;49.486;10.792;2023-04-03T02:26:55;4.30;;;1.67;;
44995;SDS011;30729;49.486;10.792;2023-04-03T02:29:21;3.97;;;1.83;;
44995;SDS011;30729;49.486;10.792;2023-04-03T02:31:46;6.30;;;1.75;;
44995;SDS011;30729;49.486;10.792;2023-04-03T02:34:11;4.65;;;1.48;;
44995;SDS011;30729;49.486;10.792;2023-04-03T02:36:36;3.42;;;1.45;;
44995;SDS011;30729;49.486;10.792;2023-04-03T02:39:02;3.38;;;1.75;;
44995;SDS011;30729;49.486;10.792;2023-04-03T02:41:28;2.95;;;1.58;;
44995;SDS011;30729;49.486;10.792;2023-04-03T02:43:59;4.90;;;1.83;;
44995;SDS011;30729;49.486;10.792;2023-04-03T02:46:24;4.95;;;1.85;;
44995;SDS011;30729;49.486;10.792;2023-04-03T02:48:50;4.53;;;1.70;;
44995;SDS011;30729;49.486;10.792;2023-04-03T02:51:15;5.10;;;1.85;;
44995;SDS011;30729;49.486;10.792;2023-04-03T02:53:40;6.82;;;1.80;;
44995;SDS011;30729;49.486;10.792;2023-04-03T02:56:06;5.47;;;1.77;;
44995;SDS011;30729;49.486;10.792;2023-04-03T02:58:31;7.07;;;1.90;;
44995;SDS011;30729;49.486;10.792;2023-04-03T03:00:56;4.35;;;2.17;;
44995;SDS011;30729;49.486;10.792;2023-04-03T03:03:21;4.90;;;1.52;;
44995;SDS011;30729;49.486;10.792;2023-04-03T03:05:46;3.17;;;1.58;;
44995;SDS011;30729;49.486;10.792;2023-04-03T03:08:13;3.47;;;1.92;;
44995;SDS011;30729;49.486;10.792;2023-04-03T03:10:38;5.82;;;2.03;;
44995;SDS011;30729;49.486;10.792;2023-04-03T03:13:03;5.53;;;2.10;;
44995;SDS011;30729;49.486;10.792;2023-04-03T03:15:28;6.63;;;1.93;;
44995;SDS011;30729;49.486;10.792;2023-04-03T03:17:53;6.53;;;2.13;;
44995;SDS011;30729;49.486;10.792;2023-04-03T03:20:18;5.22;;;2.83;;
44995;SDS011;30729;49.486;10.792;2023-04-03T03:22:43;3.72;;;1.80;;
44995;SDS011;30729;49.486;10.792;2023-04-03T03:25:09;5.15;;;2.03;;
44995;SDS011;30729;49.486;10.792;2023-04-03T03:27:34;7.10;;;2.28;;
44995;SDS011;30729;49.486;10.792;2023-04-03T03:29:59;8.23;;;2.13;;
44995;SDS011;30729;49.486;10.792;2023-04-03T03:32:24;5.63;;;1.98;;
44995;SDS011;30729;49.486;10.792;2023-04-03T03:34:50;6.68;;;2.47;;
44995;SDS011;30729;49.486;10.792;2023-04-03T03:37:15;7.25;;;2.55;;
44995;SDS011;30729;49.486;10.792;2023-04-03T03:39:40;5.32;;;1.90;;
44995;SDS011;30729;49.486;10.792;2023-04-03T03:42:05;5.27;;;2.27;;
44995;SDS011;30729;49.486;10.792;2023-04-03T03:44:30;7.25;;;2.17;;
44995;SDS011;30729;49.486;10.792;2023-04-03T03:46:55;5.63;;;2.25;;
44995;SDS011;30729;49.486;10.792;2023-04-03T03:49:21;7.70;;;2.85;;
44995;SDS011;30729;49.486;10.792;2023-04-03T03:51:46;6.97;;;2.30;;
44995;SDS011;30729;49.486;10.792;2023-04-03T03:54:11;5.18;;;2.50;;
44995;SDS011;30729;49.486;10.792;2023-04-03T03:56:37;6.70;;;2.33;;
44995;SDS011;30729;49.486;10.792;2023-04-03T03:59:02;8.02;;;2.50;;
44995;SDS011;30729;49.486;10.792;2023-04-03T04:01:27;3.83;;;2.05;;
44995;SDS011;30729;49.486;10.792;2023-04-03T04:03:52;6.00;;;2.50;;
44995;SDS011;30729;49.486;10.792;2023-04-03T04:06:19;5.88;;;2.47;;
44995;SDS011;30729;49.486;10.792;2023-04-03T04:08:44;8.07;;;2.38;;
44995;SDS011;30729;49.486;10.792;2023-04-03T04:11:09;6.75;;;2.45;;
44995;SDS011;30729;49.486;10.792;2023-04-03T04:13:35;4.47;;;2.35;;
44995;SDS011;30729;49.486;10.792;2023-04-03T04:16:00;6.65;;;2.50;;
44995;SDS011;30729;49.486;10.792;2023-04-03T04:18:25;5.03;;;2.22;;
44995;SDS011;30729;49.486;10.792;2023-04-03T04:20:50;7.28;;;2.38;;
44995;SDS011;30729;49.486;10.792;2023-04-03T04:23:16;6.45;;;2.85;;
44995;SDS011;30729;49.486;10.792;2023-04-03T04:25:43;6.68;;;2.67;;
44995;SDS011;30729;49.486;10.792;2023-04-03T04:28:08;6.55;;;2.65;;
44995;SDS011;30729;49.486;10.792;2023-04-03T04:30:34;7.13;;;2.67;;
44995;SDS011;30729;49.486;10.792;2023-04-03T04:32:59;6.60;;;2.53;;
44995;SDS011;30729;49.486;10.792;2023-04-03T04:35:24;6.93;;;2.38;;
44995;SDS011;30729;49.486;10.792;2023-04-03T04:37:50;8.23;;;2.70;;
44995;SDS011;30729;49.486;10.792;2023-04-03T04:40:15;6.93;;;2.78;;
44995;SDS011;30729;49.486;10.792;2023-04-03T04:42:40;8.23;;;2.78;;
44995;SDS011;30729;49.486;10.792;2023-04-03T04:45:06;7.60;;;2.60;;
44995;SDS011;30729;49.486;10.792;2023-04-03T04:47:32;10.07;;;3.17;;
44995;SDS011;30729;49.486;10.792;2023-04-03T04:49:57;8.13;;;2.90;;
44995;SDS011;30729;49.486;10.792;2023-04-03T04:52:22;7.45;;;2.72;;
44995;SDS011;30729;49.486;10.792;2023-04-03T04:54:47;5.50;;;2.40;;
44995;SDS011;30729;49.486;10.792;2023-04-03T04:57:12;9.00;;;2.95;;
44995;SDS011;30729;49.486;10.792;2023-04-03T04:59:38;8.55;;;2.72;;
44995;SDS011;30729;49.486;10.792;2023-04-03T05:02:03;7.47;;;2.78;;
44995;SDS011;30729;49.486;10.792;2023-04-03T05:04:28;4.57;;;2.20;;
44995;SDS011;30729;49.486;10.792;2023-04-03T05:06:53;6.50;;;2.50;;
44995;SDS011;30729;49.486;10.792;2023-04-03T05:09:18;7.23;;;2.73;;
44995;SDS011;30729;49.486;10.792;2023-04-03T05:11:44;6.07;;;2.63;;
44995;SDS011;30729;49.486;10.792;2023-04-03T05:14:10;8.77;;;2.58;;
44995;SDS011;30729;49.486;10.792;2023-04-03T05:16:35;7.28;;;2.58;;
44995;SDS011;30729;49.486;10.792;2023-04-03T05:19:01;7.38;;;2.72;;
44995;SDS011;30729;49.486;10.792;2023-04-03T05:21:26;8.13;;;2.70;;
44995;SDS011;30729;49.486;10.792;2023-04-03T05:23:54;6.60;;;2.40;;
44995;SDS011;30729;49.486;10.792;2023-04-03T05:26:19;8.63;;;2.55;;
44995;SDS011;30729;49.486;10.792;2023-04-03T05:28:45;7.35;;;2.53;;
44995;SDS011;30729;49.486;10.792;2023-04-03T05:31:10;5.75;;;2.40;;
44995;SDS011;30729;49.486;10.792;2023-04-03T05:33:36;9.20;;;2.85;;
44995;SDS011;30729;49.486;10.792;2023-04-03T05:36:02;10.18;;;2.88;;
44995;SDS011;30729;49.486;10.792;2023-04-03T05:38:28;7.25;;;2.72;;
44995;SDS011;30729;49.486;10.792;2023-04-03T05:40:53;9.35;;;2.95;;
44995;SDS011;30729;49.486;10.792;2023-04-03T05:43:19;8.63;;;2.42;;
44995;SDS011;30729;49.486;10.792;2023-04-03T05:45:44;8.75;;;2.25;;
44995;SDS011;30729;49.486;10.792;2023-04-03T05:48:09;16.85;;;3.95;;
44995;SDS011;30729;49.486;10.792;2023-04-03T05:50:35;7.13;;;2.20;;
44995;SDS011;30729;49.486;10.792;2023-04-03T05:53:01;5.63;;;2.15;;
44995;SDS011;30729;49.486;10.792;2023-04-03T05:55:27;7.93;;;2.55;;
44995;SDS011;30729;49.486;10.792;2023-04-03T05:57:52;6.83;;;2.50;;
44995;SDS011;30729;49.486;10.792;2023-04-03T06:00:17;8.95;;;2.30;;
44995;SDS011;30729;49.486;10.792;2023-04-03T06:02:42;11.15;;;3.05;;
44995;SDS011;30729;49.486;10.792;2023-04-03T06:05:08;7.97;;;2.97;;
44995;SDS011;30729;49.486;10.792;2023-04-03T06:07:34;10.60;;;3.80;;
44995;SDS011;30729;49.486;10.792;2023-04-03T06:09:59;20.05;;;9.00;;
44995;SDS011;30729;49.486;10.792;2023-04-03T06:12:25;5.10;;;3.08;;
44995;SDS011;30729;49.486;10.792;2023-04-03T06:14:50;10.32;;;5.40;;
44995;SDS011;30729;49.486;10.792;2023-04-03T06:17:16;11.57;;;3.80;;
44995;SDS011;30729;49.486;10.792;2023-04-03T06:19:42;39.70;;;20.90;;
44995;SDS011;30729;49.486;10.792;2023-04-03T06:22:08;18.52;;;9.88;;
44995;SDS011;30729;49.486;10.792;2023-04-03T06:24:33;16.58;;;6.55;;
44995;SDS011;30729;49.486;10.792;2023-04-03T06:26:58;6.90;;;3.08;;
44995;SDS011;30729;49.486;10.792;2023-04-03T06:29:23;70.25;;;28.88;;
44995;SDS011;30729;49.486;10.792;2023-04-03T06:31:49;52.53;;;26.42;;
44995;SDS011;30729;49.486;10.792;2023-04-03T06:34:14;40.38;;;23.17;;
44995;SDS011;30729;49.486;10.792;2023-04-03T06:36:40;14.65;;;7.47;;
44995;SDS011;30729;49.486;10.792;2023-04-03T06:39:06;10.65;;;6.28;;
44995;SDS011;30729;49.486;10.792;2023-04-03T06:41:31;9.50;;;4.32;;
44995;SDS011;30729;49.486;10.792;2023-04-03T06:43:56;7.10;;;4.00;;
44995;SDS011;30729;49.486;10.792;2023-04-03T06:46:23;8.57;;;3.25;;
44995;SDS011;30729;49.486;10.792;2023-04-03T06:48:49;8.15;;;2.45;;
44995;SDS011;30729;49.486;10.792;2023-04-03T06:51:27;7.85;;;3.33;;
44995;SDS011;30729;49.486;10.792;2023-04-03T06:53:53;5.10;;;2.00;;
44995;SDS011;30729;49.486;10.792;2023-04-03T06:56:19;6.50;;;2.42;;
44995;SDS011;30729;49.486;10.792;2023-04-03T06:58:44;7.82;;;2.50;;
44995;SDS011;30729;49.486;10.792;2023-04-03T07:01:10;8.13;;;2.53;;
44995;SDS011;30729;49.486;10.792;2023-04-03T07:03:36;5.78;;;2.17;;
44995;SDS011;30729;49.486;10.792;2023-04-03T07:06:01;9.52;;;2.95;;
44995;SDS011;30729;49.486;10.792;2023-04-03T07:08:27;6.55;;;2.63;;
44995;SDS011;30729;49.486;10.792;2023-04-03T07:10:52;6.65;;;2.55;;
44995;SDS011;30729;49.486;10.792;2023-04-03T07:13:17;8.05;;;2.35;;
44995;SDS011;30729;49.486;10.792;2023-04-03T07:15:42;7.13;;;2.17;;
44995;SDS011;30729;49.486;10.792;2023-04-03T07:18:07;8.55;;;2.63;;
44995;SDS011;30729;49.486;10.792;2023-04-03T07:20:33;7.07;;;2.58;;
44995;SDS011;30729;49.486;10.792;2023-04-03T07:22:58;6.38;;;2.25;;
44995;SDS011;30729;49.486;10.792;2023-04-03T07:25:23;6.13;;;2.63;;
44995;SDS011;30729;49.486;10.792;2023-04-03T07:27:48;7.88;;;2.53;;
44995;SDS011;30729;49.486;10.792;2023-04-03T07:30:14;9.43;;;2.30;;
44995;SDS011;30729;49.486;10.792;2023-04-03T07:32:39;8.88;;;2.78;;
44995;SDS011;30729;49.486;10.792;2023-04-03T07:35:05;8.13;;;2.55;;
44995;SDS011;30729;49.486;10.792;2023-04-03T07:37:30;7.68;;;2.72;;
44995;SDS011;30729;49.486;10.792;2023-04-03T07:39:57;7.47;;;2.22;;
44995;SDS011;30729;49.486;10.792;2023-04-03T07:42:23;8.50;;;2.20;;
44995;SDS011;30729;49.486;10.792;2023-04-03T07:44:49;7.68;;;2.38;;
44995;SDS011;30729;49.486;10.792;2023-04-03T07:47:14;5.88;;;2.50;;
44995;SDS011;30729;49.486;10.792;2023-04-03T07:49:41;7.22;;;2.47;;
44995;SDS011;30729;49.486;10.792;2023-04-03T07:52:06;6.85;;;2.92;;
44995;SDS011;30729;49.486;10.792;2023-04-03T07:54:33;5.78;;;2.80;;
44995;SDS011;30729;49.486;10.792;2023-04-03T07:56:58;9.03;;;3.27;;
44995;SDS011;30729;49.486;10.792;2023-04-03T07:59:23;7.17;;;3.40;;
44995;SDS011;30729;49.486;10.792;2023-04-03T08:01:49;7.07;;;2.63;;
44995;SDS011;30729;49.486;10.792;2023-04-03T08:04:14;8.57;;;2.80;;
44995;SDS011;30729;49.486;10.792;2023-04-03T08:06:39;9.77;;;2.55;;
44995;SDS011;30729;49.486;10.792;2023-04-03T08:09:05;5.88;;;2.63;;
44995;SDS011;30729;49.486;10.792;2023-04-03T08:11:30;7.68;;;2.53;;
44995;SDS011;30729;49.486;10.792;2023-04-03T08:13:56;6.90;;;3.63;;
44995;SDS011;30729;49.486;10.792;2023-04-03T08:16:21;6.78;;;2.28;;
44995;SDS011;30729;49.486;10.792;2023-04-03T08:18:47;6.32;;;2.88;;
44995;SDS011;30729;49.486;10.792;2023-04-03T08:21:12;5.43;;;2.42;;
44995;SDS011;30729;49.486;10.792;2023-04-03T08:23:38;6.07;;;2.72;;
44995;SDS011;30729;49.486;10.792;2023-04-03T08:26:11;6.70;;;3.45;;
44995;SDS011;30729;49.486;10.792;2023-04-03T08:28:37;10.35;;;5.22;;
44995;SDS011;30729;49.486;10.792;2023-04-03T08:31:03;5.93;;;2.92;;
44995;SDS011;30729;49.486;10.792;2023-04-03T08:33:30;7.25;;;3.15;;
44995;SDS011;30729;49.486;10.792;2023-04-03T08:35:55;8.43;;;2.85;;
44995;SDS011;30729;49.486;10.792;2023-04-03T08:38:21;9.43;;;2.90;;
44995;SDS011;30729;49.486;10.792;2023-04-03T08:40:46;10.43;;;4.73;;
44995;SDS011;30729;49.486;10.792;2023-04-03T08:43:33;10.13;;;3.03;;
44995;SDS011;30729;49.486;10.792;2023-04-03T08:46:00;10.23;;;5.18;;
44995;SDS011;30729;49.486;10.792;2023-04-03T08:48:33;8.88;;;3.05;;
44995;SDS011;30729;49.486;10.792;2023-04-03T08:51:00;6.88;;;2.80;;
44995;SDS011;30729;49.486;10.792;2023-04-03T08:53:32;8.55;;;2.97;;
44995;SDS011;30729;49.486;10.792;2023-04-03T08:55:58;8.07;;;2.60;;
44995;SDS011;30729;49.486;10.792;2023-04-03T08:58:28;8.70;;;2.53;;
44995;SDS011;30729;49.486;10.792;2023-04-03T09:00:56;6.45;;;2.38;;
44995;SDS011;30729;49.486;10.792;2023-04-03T09:03:22;6.70;;;2.88;;
44995;SDS011;30729;49.486;10.792;2023-04-03T09:05:55;4.65;;;2.20;;
44995;SDS011;30729;49.486;10.792;2023-04-03T09:08:23;6.43;;;2.47;;
44995;SDS011;30729;49.486;10.792;2023-04-03T09:10:52;6.80;;;2.95;;
44995;SDS011;30729;49.486;10.792;2023-04-03T09:13:29;7.03;;;2.70;;
44995;SDS011;30729;49.486;10.792;2023-04-03T09:15:55;6.65;;;2.20;;
44995;SDS011;30729;49.486;10.792;2023-04-03T09:18:23;5.43;;;2.10;;
44995;SDS011;30729;49.486;10.792;2023-04-03T09:21:08;6.65;;;2.20;;
44995;SDS011;30729;49.486;10.792;2023-04-03T09:23:51;5.53;;;2.25;;
44995;SDS011;30729;49.486;10.792;2023-04-03T09:26:18;5.35;;;1.90;;
44995;SDS011;30729;49.486;10.792;2023-04-03T09:28:45;9.32;;;3.05;;
44995;SDS011;30729;49.486;10.792;2023-04-03T09:31:55;6.07;;;2.15;;
44995;SDS011;30729;49.486;10.792;2023-04-03T09:34:03;4.75;;;1.80;;
44995;SDS011;30729;49.486;10.792;2023-04-03T09:36:37;5.13;;;1.77;;
44995;SDS011;30729;49.486;10.792;2023-04-03T09:39:06;4.90;;;2.17;;
44995;SDS011;30729;49.486;10.792;2023-04-03T09:41:33;5.32;;;1.70;;
44995;SDS011;30729;49.486;10.792;2023-04-03T09:43:58;4.05;;;1.95;;
44995;SDS011;30729;49.486;10.792;2023-04-03T09:46:26;6.55;;;1.75;;
44995;SDS011;30729;49.486;10.792;2023-04-03T09:48:57;5.80;;;1.70;;
44995;SDS011;30729;49.486;10.792;2023-04-03T09:51:24;4.43;;;1.90;;
44995;SDS011;30729;49.486;10.792;2023-04-03T09:53:51;5.38;;;1.58;;
44995;SDS011;30729;49.486;10.792;2023-04-03T09:58:42;3.90;;;1.60;;
44995;SDS011;30729;49.486;10.792;2023-04-03T10:01:09;7.57;;;1.92;;
44995;SDS011;30729;49.486;10.792;2023-04-03T10:03:45;4.05;;;1.75;;
44995;SDS011;30729;49.486;10.792;2023-04-03T10:06:23;3.80;;;1.60;;
44995;SDS011;30729;49.486;10.792;2023-04-03T10:09:06;2.58;;;1.48;;
44995;SDS011;30729;49.486;10.792;2023-04-03T10:11:44;4.40;;;1.92;;
44995;SDS011;30729;49.486;10.792;2023-04-03T10:14:21;9.30;;;2.83;;
44995;SDS011;30729;49.486;10.792;2023-04-03T10:16:48;8.88;;;3.40;;
44995;SDS011;30729;49.486;10.792;2023-04-03T10:21:48;5.55;;;1.98;;
44995;SDS011;30729;49.486;10.792;2023-04-03T10:24:18;4.15;;;1.83;;
44995;SDS011;30729;49.486;10.792;2023-04-03T10:31:53;8.23;;;2.90;;
44995;SDS011;30729;49.486;10.792;2023-04-03T10:34:23;7.55;;;1.98;;
44995;SDS011;30729;49.486;10.792;2023-04-03T10:39:20;10.73;;;2.80;;
44995;SDS011;30729;49.486;10.792;2023-04-03T10:41:57;3.85;;;1.80;;
44995;SDS011;30729;49.486;10.792;2023-04-03T10:45:08;4.25;;;1.77;;
44995;SDS011;30729;49.486;10.792;2023-04-03T10:47:16;4.15;;;1.40;;
44995;SDS011;30729;49.486;10.792;2023-04-03T10:52:24;5.10;;;2.00;;
44995;SDS011;30729;49.486;10.792;2023-04-03T10:55:01;3.45;;;1.70;;
44995;SDS011;30729;49.486;10.792;2023-04-03T10:57:29;6.40;;;2.00;;
44995;SDS011;30729;49.486;10.792;2023-04-03T10:59:59;4.40;;;1.65;;
44995;SDS011;30729;49.486;10.792;2023-04-03T11:02:33;5.28;;;1.75;;
44995;SDS011;30729;49.486;10.792;2023-04-03T11:05:01;5.77;;;2.50;;
44995;SDS011;30729;49.486;10.792;2023-04-03T11:07:38;3.88;;;1.58;;
44995;SDS011;30729;49.486;10.792;2023-04-03T11:10:08;6.47;;;2.03;;
44995;SDS011;30729;49.486;10.792;2023-04-03T11:12:41;5.85;;;2.28;;
44995;SDS011;30729;49.486;10.792;2023-04-03T11:15:11;8.68;;;3.83;;
44995;SDS011;30729;49.486;10.792;2023-04-03T11:17:41;6.20;;;3.15;;
44995;SDS011;30729;49.486;10.792;2023-04-03T11:20:25;6.45;;;1.95;;
44995;SDS011;30729;49.486;10.792;2023-04-03T11:23:00;8.13;;;2.45;;
44995;SDS011;30729;49.486;10.792;2023-04-03T11:25:26;6.07;;;2.45;;
44995;SDS011;30729;49.486;10.792;2023-04-03T11:27:55;5.43;;;2.30;;
44995;SDS011;30729;49.486;10.792;2023-04-03T11:32:54;3.53;;;1.65;;
44995;SDS011;30729;49.486;10.792;2023-04-03T11:35:21;4.43;;;1.90;;
44995;SDS011;30729;49.486;10.792;2023-04-03T11:37:48;6.28;;;2.30;;
44995;SDS011;30729;49.486;10.792;2023-04-03T11:42:40;7.10;;;3.83;;
44995;SDS011;30729;49.486;10.792;2023-04-03T11:45:25;5.03;;;2.13;;
44995;SDS011;30729;49.486;10.792;2023-04-03T11:50:32;4.93;;;1.90;;
44995;SDS011;30729;49.486;10.792;2023-04-03T11:53:25;5.90;;;2.13;;
44995;SDS011;30729;49.486;10.792;2023-04-03T12:00:58;5.40;;;2.60;;
44995;SDS011;30729;49.486;10.792;2023-04-03T12:05:55;5.63;;;1.95;;
44995;SDS011;30729;49.486;10.792;2023-04-03T12:08:25;7.45;;;3.00;;
44995;SDS011;30729;49.486;10.792;2023-04-03T12:16:00;6.80;;;2.88;;
44995;SDS011;30729;49.486;10.792;2023-04-03T12:20:57;4.90;;;2.20;;
44995;SDS011;30729;49.486;10.792;2023-04-03T12:23:24;4.13;;;1.90;;
44995;SDS011;30729;49.486;10.792;2023-04-03T12:25:50;6.15;;;2.40;;
44995;SDS011;30729;49.486;10.792;2023-04-03T12:28:15;4.82;;;1.90;;
44995;SDS011;30729;49.486;10.792;2023-04-03T12:30:40;4.47;;;1.88;;
44995;SDS011;30729;49.486;10.792;2023-04-03T12:33:13;8.70;;;2.63;;
44995;SDS011;30729;49.486;10.792;2023-04-03T12:35:44;6.90;;;2.72;;
44995;SDS011;30729;49.486;10.792;2023-04-03T12:38:17;6.22;;;2.13;;
44995;SDS011;30729;49.486;10.792;2023-04-03T12:40:56;5.22;;;2.00;;
44995;SDS011;30729;49.486;10.792;2023-04-03T12:48:33;6.45;;;1.75;;
44995;SDS011;30729;49.486;10.792;2023-04-03T12:51:02;5.95;;;2.00;;
44995;SDS011;30729;49.486;10.792;2023-04-03T12:53:28;5.63;;;1.65;;
44995;SDS011;30729;49.486;10.792;2023-04-03T12:55:56;4.53;;;1.77;;
44995;SDS011;30729;49.486;10.792;2023-04-03T12:58:25;3.08;;;1.70;;
44995;SDS011;30729;49.486;10.792;2023-04-03T13:01:08;3.80;;;1.67;;
44995;SDS011;30729;49.486;10.792;2023-04-03T13:03:34;3.10;;;1.50;;
44995;SDS011;30729;49.486;10.792;2023-04-03T13:06:02;4.80;;;1.90;;
44995;SDS011;30729;49.486;10.792;2023-04-03T13:08:28;7.40;;;1.83;;
44995;SDS011;30729;49.486;10.792;2023-04-03T13:10:59;4.28;;;2.03;;
44995;SDS011;30729;49.486;10.792;2023-04-03T13:13:26;6.50;;;2.63;;
44995;SDS011;30729;49.486;10.792;2023-04-03T13:15:51;5.65;;;1.65;;
44995;SDS011;30729;49.486;10.792;2023-04-03T13:20:52;4.28;;;1.50;;
44995;SDS011;30729;49.486;10.792;2023-04-03T13:23:19;4.85;;;1.58;;
44995;SDS011;30729;49.486;10.792;2023-04-03T13:25:45;4.88;;;1.75;;
44995;SDS011;30729;49.486;10.792;2023-04-03T13:28:13;4.25;;;1.40;;
44995;SDS011;30729;49.486;10.792;2023-04-03T13:30:40;3.17;;;1.67;;
44995;SDS011;30729;49.486;10.792;2023-04-03T13:33:17;5.47;;;2.00;;
44995;SDS011;30729;49.486;10.792;2023-04-03T13:35:44;3.40;;;1.45;;
44995;SDS011;30729;49.486;10.792;2023-04-03T13:40:50;5.35;;;1.67;;
44995;SDS011;30729;49.486;10.792;2023-04-03T13:43:17;4.55;;;1.85;;
44995;SDS011;30729;49.486;10.792;2023-04-03T13:48:23;2.45;;;1.42;;
44995;SDS011;30729;49.486;10.792;2023-04-03T13:53:17;5.97;;;2.00;;
44995;SDS011;30729;49.486;10.792;2023-04-03T13:58:26;5.35;;;1.80;;
44995;SDS011;30729;49.486;10.792;2023-04-03T14:00:53;7.72;;;1.30;;
44995;SDS011;30729;49.486;10.792;2023-04-03T14:03:24;3.22;;;1.58;;
44995;SDS011;30729;49.486;10.792;2023-04-03T14:05:50;5.05;;;2.03;;
44995;SDS011;30729;49.486;10.792;2023-04-03T14:08:16;5.45;;;1.92;;
44995;SDS011;30729;49.486;10.792;2023-04-03T14:10:41;4.43;;;1.60;;
44995;SDS011;30729;49.486;10.792;2023-04-03T14:13:08;4.43;;;1.80;;
44995;SDS011;30729;49.486;10.792;2023-04-03T14:15:34;3.47;;;1.80;;
44995;SDS011;30729;49.486;10.792;2023-04-03T14:17:59;4.18;;;1.80;;
44995;SDS011;30729;49.486;10.792;2023-04-03T14:20:26;5.30;;;1.92;;
44995;SDS011;30729;49.486;10.792;2023-04-03T14:22:51;3.30;;;1.30;;
44995;SDS011;30729;49.486;10.792;2023-04-03T14:25:17;3.35;;;1.95;;
44995;SDS011;30729;49.486;10.792;2023-04-03T14:27:44;3.38;;;1.33;;
44995;SDS011;30729;49.486;10.792;2023-04-03T14:30:14;5.80;;;1.92;;
44995;SDS011;30729;49.486;10.792;2023-04-03T14:32:40;9.90;;;2.13;;
44995;SDS011;30729;49.486;10.792;2023-04-03T14:35:05;4.03;;;1.60;;
44995;SDS011;30729;49.486;10.792;2023-04-03T14:37:31;5.40;;;1.90;;
44995;SDS011;30729;49.486;10.792;2023-04-03T14:39:57;3.53;;;1.55;;
44995;SDS011;30729;49.486;10.792;2023-04-03T14:42:24;5.20;;;1.63;;
44995;SDS011;30729;49.486;10.792;2023-04-03T14:44:50;3.72;;;1.55;;
44995;SDS011;30729;49.486;10.792;2023-04-03T14:47:16;5.75;;;1.90;;
44995;SDS011;30729;49.486;10.792;2023-04-03T14:49:43;5.45;;;1.90;;
44995;SDS011;30729;49.486;10.792;2023-04-03T14:52:19;2.28;;;1.30;;
44995;SDS011;30729;49.486;10.792;2023-04-03T14:54:44;6.25;;;1.67;;
44995;SDS011;30729;49.486;10.792;2023-04-03T14:57:09;4.78;;;1.48;;
44995;SDS011;30729;49.486;10.792;2023-04-03T14:59:36;8.20;;;1.90;;
44995;SDS011;30729;49.486;10.792;2023-04-03T15:02:01;6.35;;;1.60;;
44995;SDS011;30729;49.486;10.792;2023-04-03T15:04:26;3.90;;;1.70;;
44995;SDS011;30729;49.486;10.792;2023-04-03T15:06:52;5.55;;;1.65;;
44995;SDS011;30729;49.486;10.792;2023-04-03T15:09:19;4.25;;;1.90;;
44995;SDS011;30729;49.486;10.792;2023-04-03T15:11:45;4.25;;;1.48;;
44995;SDS011;30729;49.486;10.792;2023-04-03T15:14:10;3.50;;;1.48;;
44995;SDS011;30729;49.486;10.792;2023-04-03T15:16:35;6.18;;;1.83;;
44995;SDS011;30729;49.486;10.792;2023-04-03T15:19:00;4.22;;;1.65;;
44995;SDS011;30729;49.486;10.792;2023-04-03T15:21:26;6.10;;;1.63;;
44995;SDS011;30729;49.486;10.792;2023-04-03T15:23:51;6.20;;;1.83;;
44995;SDS011;30729;49.486;10.792;2023-04-03T15:26:16;4.50;;;1.77;;
44995;SDS011;30729;49.486;10.792;2023-04-03T15:28:41;4.07;;;2.30;;
44995;SDS011;30729;49.486;10.792;2023-04-03T15:31:07;6.88;;;2.03;;
44995;SDS011;30729;49.486;10.792;2023-04-03T15:33:33;3.55;;;1.48;;